Time;durP1;ratioP1;P1;durP2;ratioP2;P2;SDS_P1;SDS_P2;PMS_P1;PMS_P2;Temp;Humidity;BMP_temperature;BMP_pressure;BME280_temperature;BME280_humidity;BME280_pressure;Samples;Min_cycle;Max_cycle;Signal;HPM_P1;HPM_P2
2021/08/13 04:41:52;;;;;;;16.65;7.17;;;;;;;22.71;54.14;99402.34;1683742;80;21424;-58
2021/08/13 04:44:21;;;;;;;18.85;9.63;;;;;;;22.89;54.30;99402.84;1651078;84;21047;-58
2021/08/13 04:46:49;;;;;;;17.05;8.30;;;;;;;22.99;53.24;99400.08;1665564;84;21106;-57
2021/08/13 04:49:18;;;;;;;15.23;7.25;;;;;;;22.94;53.71;99404.97;1664073;84;21471;-64
2021/08/13 04:51:46;;;;;;;16.65;6.97;;;;;;;22.95;53.87;99409.26;1661763;86;21027;-63
2021/08/13 04:54:14;;;;;;;18.25;6.87;;;;;;;23.03;53.73;99411.91;1662613;84;21067;-52
2021/08/13 04:56:44;;;;;;;32.42;7.95;;;;;;;23.31;53.29;99424.67;1667014;84;21170;-49
2021/08/13 04:59:13;;;;;;;23.13;7.10;;;;;;;23.52;52.14;99429.40;1651271;86;21043;-52
2021/08/13 05:01:49;;;;;;;16.90;7.40;;;;;;;23.87;51.47;99428.12;1671525;86;21589;-52
2021/08/13 05:04:17;;;;;;;19.80;6.45;;;;;;;24.13;50.59;99437.58;1671903;86;21035;-58
2021/08/13 05:06:44;;;;;;;14.63;6.12;;;;;;;24.37;49.75;99440.34;1660023;85;21121;-56
2021/08/13 05:09:14;;;;;;;16.65;6.53;;;;;;;24.53;49.60;99436.42;1670583;84;21704;-48
2021/08/13 05:11:46;;;;;;;15.80;6.35;;;;;;;24.73;48.88;99442.16;1667681;83;21525;-56
2021/08/13 05:14:18;;;;;;;15.58;6.55;;;;;;;24.73;48.61;99437.30;1675201;83;21004;-58
2021/08/13 05:16:47;;;;;;;13.50;6.35;;;;;;;24.72;48.43;99433.81;1669256;84;21106;-56
2021/08/13 05:19:17;;;;;;;16.65;6.33;;;;;;;24.61;48.42;99445.24;1673365;84;21380;-53
2021/08/13 05:21:45;;;;;;;17.85;6.20;;;;;;;24.52;48.89;99448.29;1673457;84;20999;-55
2021/08/13 05:24:16;;;;;;;23.80;6.58;;;;;;;24.67;48.90;99450.04;1673323;85;22393;-55
2021/08/13 05:26:45;;;;;;;18.67;6.10;;;;;;;24.85;48.78;99453.33;1671112;84;21546;-54
2021/08/13 05:29:14;;;;;;;17.75;6.00;;;;;;;25.07;48.02;99451.49;1684336;85;21055;-58
2021/08/13 05:31:41;;;;;;;14.13;6.20;;;;;;;25.08;47.41;99447.70;1665185;86;21083;-49
2021/08/13 05:34:09;;;;;;;15.00;6.45;;;;;;;25.03;47.50;99457.72;1636781;88;21087;-51
2021/08/13 05:36:36;;;;;;;19.60;9.05;;;;;;;25.00;47.65;99458.27;1646947;86;21062;-48
2021/08/13 05:39:04;;;;;;;25.23;10.65;;;;;;;25.13;47.76;99458.98;1639135;86;21089;-54
2021/08/13 05:41:32;;;;;;;22.42;6.40;;;;;;;25.42;47.40;99449.42;1609360;88;21172;-50
2021/08/13 05:43:59;;;;;;;21.73;6.47;;;;;;;25.59;47.04;99455.66;1639279;86;21035;-57
2021/08/13 05:46:27;;;;;;;18.70;6.55;;;;;;;25.73;46.76;99455.17;1640204;86;21046;-52
2021/08/13 05:48:57;;;;;;;16.23;6.28;;;;;;;25.84;46.50;99455.85;1684320;85;21059;-50
2021/08/13 05:51:27;;;;;;;10.95;5.90;;;;;;;25.82;46.56;99458.85;1680772;85;21063;-51
2021/08/13 05:53:55;;;;;;;12.78;6.33;;;;;;;25.91;46.19;99465.72;1665048;85;21562;-57
2021/08/13 05:56:23;;;;;;;13.98;5.78;;;;;;;26.06;46.12;99460.09;1641683;86;21067;-51
2021/08/13 05:58:51;;;;;;;15.18;6.03;;;;;;;26.24;45.70;99456.29;1677726;85;21158;-51
2021/08/13 06:01:18;;;;;;;15.32;6.08;;;;;;;26.37;45.51;99463.06;1676902;85;21091;-52
2021/08/13 06:03:47;;;;;;;14.93;6.55;;;;;;;26.43;45.34;99465.16;1674629;84;21542;-54
2021/08/13 06:06:15;;;;;;;15.20;5.80;;;;;;;26.56;44.97;99462.25;1675262;83;21823;-56
2021/08/13 06:08:47;;;;;;;11.88;5.97;;;;;;;26.61;45.13;99459.42;1672824;83;21487;-55
2021/08/13 06:11:16;;;;;;;12.82;6.15;;;;;;;26.70;44.83;99456.29;1653692;84;21068;-50
2021/08/13 06:13:43;;;;;;;12.90;6.00;;;;;;;26.53;44.42;99458.78;1650723;87;21095;-49
2021/08/13 06:16:17;;;;;;;15.68;6.33;;;;;;;26.31;45.36;99457.50;1670158;84;21047;-59
2021/08/13 06:18:45;;;;;;;19.17;6.45;;;;;;;26.19;45.89;99457.17;1688537;85;21067;-55
2021/08/13 06:21:15;;;;;;;14.93;5.80;;;;;;;26.25;45.83;99465.44;1661258;84;21062;-59
2021/08/13 06:23:43;;;;;;;18.32;6.53;;;;;;;26.37;45.77;99456.31;1677124;84;21817;-55
2021/08/13 06:26:11;;;;;;;14.07;5.67;;;;;;;26.52;45.50;99458.53;1633978;86;21438;-57
2021/08/13 06:28:41;;;;;;;;;;;;;;;26.64;45.10;99461.55;1639343;86;21066;-54
2021/08/13 06:31:09;;;;;;;10.80;5.50;;;;;;;26.68;44.87;99458.50;1661739;86;20133;-54
2021/08/13 06:33:37;;;;;;;13.80;6.10;;;;;;;26.81;44.44;99459.61;1673504;84;21028;-54
2021/08/13 06:36:05;;;;;;;13.20;5.40;;;;;;;26.61;44.22;99466.19;1665236;85;21530;-53
2021/08/13 06:38:34;;;;;;;13.62;5.67;;;;;;;26.54;44.99;99460.37;1652925;85;21060;-53
2021/08/13 06:41:02;;;;;;;11.38;6.05;;;;;;;26.76;44.93;99464.55;1638859;85;21030;-56
2021/08/13 06:43:30;;;;;;;13.20;5.50;;;;;;;26.96;44.38;99462.82;1639673;87;21113;-54
2021/08/13 06:45:59;;;;;;;11.80;5.33;;;;;;;26.91;43.89;99462.92;1639561;87;21091;-56
2021/08/13 06:48:29;;;;;;;9.10;5.08;;;;;;;26.70;44.38;99453.59;1613491;87;21135;-52
2021/08/13 06:50:56;;;;;;;9.35;5.20;;;;;;;26.61;44.75;99455.38;1658030;85;21032;-54
2021/08/13 06:53:25;;;;;;;17.77;5.72;;;;;;;26.62;44.18;99457.00;1649456;86;20995;-56
2021/08/13 06:55:53;;;;;;;25.00;5.42;;;;;;;26.54;44.98;99454.41;1592360;89;21067;-51
2021/08/13 06:58:20;;;;;;;21.33;5.97;;;;;;;26.62;45.22;99457.00;1660451;84;21155;-50
2021/08/13 07:00:48;;;;;;;21.05;6.10;;;;;;;26.74;45.91;99455.40;1662579;85;21074;-55
2021/08/13 07:03:16;;;;;;;28.47;6.10;;;;;;;26.74;45.69;99454.05;1610450;89;21115;-51
2021/08/13 07:05:43;;;;;;;20.12;5.97;;;;;;;26.87;45.94;99454.34;1641715;86;21055;-52
2021/08/13 07:08:12;;;;;;;13.53;5.28;;;;;;;26.87;44.85;99465.97;1631030;88;21091;-56
2021/08/13 07:10:41;;;;;;;15.85;7.12;;;;;;;26.78;46.50;99468.30;1655744;86;21039;-49
2021/08/13 07:13:10;;;;;;;16.45;7.53;;;;;;;26.82;46.96;99468.77;1666714;85;21550;-54
2021/08/13 07:15:37;;;;;;;14.28;6.28;;;;;;;26.89;46.57;99468.36;1664845;86;21039;-52
2021/08/13 07:18:06;;;;;;;15.38;5.85;;;;;;;26.77;45.60;99466.16;1641180;85;21016;-52
2021/08/13 07:20:35;;;;;;;20.25;5.92;;;;;;;26.56;45.18;99464.41;1634541;86;21015;-52
2021/08/13 07:23:04;;;;;;;12.68;5.62;;;;;;;26.33;45.96;99466.13;1646923;87;21586;-49
2021/08/13 07:25:33;;;;;;;10.20;5.20;;;;;;;26.17;46.52;99466.13;1646953;87;21070;-55
2021/08/13 07:28:00;;;;;;;10.95;5.25;;;;;;;26.01;45.94;99466.13;1647149;87;21593;-59
2021/08/13 07:30:28;;;;;;;9.88;4.92;;;;;;;25.50;47.30;99467.65;1646058;87;21066;-55
2021/08/13 07:32:56;;;;;;;12.55;5.33;;;;;;;25.29;48.18;99467.66;1639801;87;21065;-56
2021/08/13 07:35:24;;;;;;;10.15;4.92;;;;;;;25.25;48.05;99466.09;1645551;86;21047;-53
2021/08/13 07:37:53;;;;;;;9.78;5.05;;;;;;;25.18;47.72;99468.36;1656622;86;21574;-52
2021/08/13 07:40:21;;;;;;;13.08;5.37;;;;;;;25.04;47.93;99464.70;1656700;86;21150;-57
2021/08/13 07:42:54;;;;;;;10.60;4.95;;;;;;;24.84;47.78;99463.87;1664950;85;20984;-55
2021/08/13 07:45:22;;;;;;;10.48;4.72;;;;;;;24.73;47.73;99467.77;1665426;85;21043;-57
2021/08/13 07:47:49;;;;;;;13.13;5.05;;;;;;;24.33;47.54;99472.43;1665390;85;21090;-59
2021/08/13 07:50:18;;;;;;;9.68;4.60;;;;;;;23.94;49.16;99463.59;1665532;85;21075;-56
2021/08/13 07:52:45;;;;;;;10.58;5.20;;;;;;;23.88;49.96;99463.38;1664987;85;21019;-59
2021/08/13 07:55:15;;;;;;;8.50;5.00;;;;;;;23.81;49.37;99475.27;1665161;85;21067;-52
2021/08/13 07:57:44;;;;;;;9.75;5.37;;;;;;;23.62;50.11;99470.77;1665695;85;21543;-54
2021/08/13 08:00:13;;;;;;;9.33;5.17;;;;;;;23.65;50.34;99468.91;1639795;86;21014;-60
2021/08/13 08:02:51;;;;;;;8.83;5.03;;;;;;;23.70;50.18;99461.61;1640088;86;21075;-59
2021/08/13 08:05:19;;;;;;;7.50;4.53;;;;;;;23.60;49.87;99471.05;1629557;87;21102;-56
2021/08/13 08:07:46;;;;;;;10.58;5.30;;;;;;;23.52;49.93;99471.11;1613183;89;21097;-55
2021/08/13 08:10:15;;;;;;;11.80;4.90;;;;;;;23.54;50.08;99474.31;1622476;87;21074;-56
2021/08/13 08:12:44;;;;;;;8.70;4.60;;;;;;;23.61;50.07;99476.69;1640033;87;21609;-52
2021/08/13 08:15:12;;;;;;;10.98;4.87;;;;;;;23.66;49.69;99481.27;1639394;87;21034;-55
2021/08/13 08:17:39;;;;;;;10.58;5.92;;;;;;;23.73;49.09;99479.07;1611617;88;21110;-51
2021/08/13 08:20:09;;;;;;;9.33;5.17;;;;;;;23.63;48.58;99473.74;1630111;88;21983;-53
2021/08/13 08:22:37;;;;;;;9.30;5.13;;;;;;;23.47;49.16;99477.05;1639949;87;21535;-55
2021/08/13 08:25:06;;;;;;;9.08;5.03;;;;;;;23.42;49.25;99479.23;1640471;86;21282;-59
2021/08/13 08:27:33;;;;;;;10.30;4.60;;;;;;;23.25;49.01;99476.08;1646083;87;21039;-50
2021/08/13 08:30:01;;;;;;;12.55;4.95;;;;;;;23.09;48.74;99489.31;1638390;87;21494;-55
2021/08/13 08:32:28;;;;;;;12.82;5.33;;;;;;;22.93;49.62;99482.63;1638527;88;21605;-54
2021/08/13 08:34:55;;;;;;;9.03;4.83;;;;;;;22.91;50.55;99486.69;1639551;87;21032;-54
2021/08/13 08:37:23;;;;;;;9.70;4.80;;;;;;;23.01;48.87;99478.06;1639574;87;21103;-50
2021/08/13 08:39:52;;;;;;;12.73;4.55;;;;;;;23.12;48.49;99486.09;1639219;87;21557;-58
2021/08/13 08:42:20;;;;;;;8.78;4.53;;;;;;;23.11;48.32;99484.46;1636307;86;21217;-61
2021/08/13 08:44:48;;;;;;;9.83;4.47;;;;;;;23.19;48.40;99483.91;1634314;87;21094;-56
2021/08/13 08:47:18;;;;;;;10.85;5.08;;;;;;;23.24;47.75;99477.17;1634200;87;21090;-52
2021/08/13 08:49:46;;;;;;;9.90;4.83;;;;;;;23.26;47.65;99484.41;1670711;85;21046;-52
2021/08/13 08:52:13;;;;;;;11.20;4.75;;;;;;;23.32;47.58;99488.68;1680228;84;20999;-53
2021/08/13 08:54:43;;;;;;;8.03;4.30;;;;;;;23.41;47.17;99483.55;1650945;85;21567;-56
2021/08/13 08:57:11;;;;;;;7.10;3.92;;;;;;;23.45;46.52;99486.73;1631311;87;21027;-57
2021/08/13 08:59:38;;;;;;;11.45;4.75;;;;;;;23.53;46.54;99480.78;1626386;87;21034;-53
2021/08/13 09:02:06;;;;;;;9.63;4.72;;;;;;;23.58;46.50;99481.30;1637044;86;21546;-55
2021/08/13 09:04:34;;;;;;;9.20;4.20;;;;;;;23.65;46.70;99488.55;1675080;85;21118;-52
2021/08/13 09:07:03;;;;;;;11.18;4.95;;;;;;;23.69;45.23;99490.16;1676536;85;21071;-59
2021/08/13 09:09:31;;;;;;;12.37;4.87;;;;;;;23.69;45.95;99479.39;1616927;87;21571;-58
2021/08/13 09:11:59;;;;;;;9.00;4.45;;;;;;;23.76;45.52;99475.30;1670794;84;21117;-54
2021/08/13 09:14:41;;;;;;;9.40;4.35;;;;;;;23.78;45.02;99481.19;1674733;85;21051;-53
2021/08/13 09:17:08;;;;;;;9.08;5.00;;;;;;;23.77;44.87;99484.97;1647544;87;21075;-55
2021/08/13 09:19:45;;;;;;;9.15;4.40;;;;;;;23.80;45.04;99483.63;1646630;86;21574;-57
2021/08/13 09:22:16;;;;;;;7.55;4.42;;;;;;;23.89;45.45;99481.13;1647472;87;21074;-60
2021/08/13 09:24:45;;;;;;;8.90;3.90;;;;;;;23.91;43.87;99488.38;1646964;86;21582;-54
2021/08/13 09:27:26;;;;;;;8.83;3.77;;;;;;;23.85;42.21;99486.25;1653216;86;21088;-53
2021/08/13 09:30:15;;;;;;;10.20;4.17;;;;;;;23.80;42.16;99479.04;1668559;86;21087;-53
2021/08/13 09:33:05;;;;;;;7.95;4.10;;;;;;;23.78;43.26;99483.88;1669260;86;21545;-54
2021/08/13 09:35:38;;;;;;;7.03;3.67;;;;;;;23.73;43.63;99473.14;1669179;86;21075;-52
2021/08/13 09:38:13;;;;;;;6.87;3.62;;;;;;;23.62;41.65;99485.56;1669866;86;21495;-57
2021/08/13 09:40:43;;;;;;;7.22;3.65;;;;;;;23.54;41.98;99478.89;1669231;86;21111;-54
2021/08/13 09:43:11;;;;;;;6.83;3.65;;;;;;;23.54;42.20;99483.73;1669607;86;21063;-60
2021/08/13 09:45:41;;;;;;;8.10;3.47;;;;;;;23.48;42.82;99489.42;1669592;84;21086;-57
2021/08/13 09:48:24;;;;;;;7.80;4.00;;;;;;;23.51;43.54;99484.81;1645677;86;21084;-60
2021/08/13 09:50:52;;;;;;;6.33;3.30;;;;;;;23.66;42.98;99486.66;1667589;86;21047;-56
2021/08/13 09:53:20;;;;;;;6.87;3.20;;;;;;;23.75;41.47;99487.15;1669330;86;21086;-57
2021/08/13 09:55:48;;;;;;;7.97;3.60;;;;;;;23.77;41.90;99480.93;1651738;85;21139;-54
2021/08/13 09:58:29;;;;;;;6.33;3.40;;;;;;;23.83;41.73;99481.16;1687814;84;21050;-59
2021/08/13 10:00:57;;;;;;;5.55;3.33;;;;;;;23.82;41.52;99483.59;1634365;87;21062;-60
2021/08/13 10:03:25;;;;;;;5.42;3.37;;;;;;;23.78;43.36;99481.19;1635726;87;21534;-61
2021/08/13 10:06:04;;;;;;;7.83;3.60;;;;;;;23.89;42.08;99490.01;1661309;86;21033;-59
2021/08/13 10:08:44;;;;;;;7.85;3.67;;;;;;;23.84;43.04;99481.41;1662717;86;21049;-58
2021/08/13 10:11:15;;;;;;;6.65;3.30;;;;;;;23.95;42.69;99475.42;1668337;85;21063;-59
2021/08/13 10:13:49;;;;;;;6.50;3.65;;;;;;;24.02;41.22;99481.28;1651703;85;21083;-59
2021/08/13 10:16:23;;;;;;;6.30;3.17;;;;;;;23.93;41.77;99487.57;1623425;88;21060;-61
2021/08/13 10:18:57;;;;;;;7.10;3.50;;;;;;;23.97;42.34;99480.00;1660613;85;21085;-61
2021/08/13 10:21:27;;;;;;;8.20;3.80;;;;;;;24.17;42.47;99472.84;1627230;86;21059;-63
2021/08/13 10:23:55;;;;;;;5.85;3.37;;;;;;;24.37;41.46;99474.03;1667133;85;20973;-59
2021/08/13 10:26:23;;;;;;;6.65;3.40;;;;;;;24.51;40.26;99489.80;1660047;85;21698;-63
2021/08/13 10:28:52;;;;;;;5.90;2.92;;;;;;;24.56;40.62;99485.72;1662952;85;21020;-55
2021/08/13 10:31:20;;;;;;;4.72;2.80;;;;;;;24.53;38.04;99473.34;1667322;85;21103;-57
2021/08/13 10:33:52;;;;;;;4.45;3.08;;;;;;;24.38;38.57;99480.25;1662249;85;21091;-58
2021/08/13 10:36:21;;;;;;;4.83;3.40;;;;;;;24.25;39.87;99471.67;1665882;85;21638;-58
2021/08/13 10:38:50;;;;;;;7.05;3.42;;;;;;;24.22;39.68;99476.30;1663452;85;20987;-57
2021/08/13 10:41:22;;;;;;;6.50;3.22;;;;;;;24.11;40.12;99477.47;1625772;87;20985;-59
2021/08/13 10:43:53;;;;;;;4.83;3.00;;;;;;;24.05;41.25;99475.35;1662454;85;21106;-68
2021/08/13 10:46:20;;;;;;;5.72;3.10;;;;;;;24.17;40.71;99463.41;1675771;84;21008;-62
2021/08/13 10:48:51;;;;;;;4.15;2.95;;;;;;;24.34;41.00;99475.92;1668507;84;21060;-55
2021/08/13 10:51:28;;;;;;;5.67;2.87;;;;;;;24.42;39.24;99474.53;1682704;83;21275;-56
2021/08/13 10:54:19;;;;;;;4.92;3.22;;;;;;;24.36;37.68;99484.55;1678955;84;21019;-56
2021/08/13 10:56:50;;;;;;;6.65;2.77;;;;;;;24.30;39.02;99477.56;1659407;86;21142;-57
2021/08/13 10:59:45;;;;;;;7.20;3.17;;;;;;;24.37;39.69;99476.72;1656634;86;21096;-57
2021/08/13 11:02:18;;;;;;;6.30;3.20;;;;;;;24.49;38.68;99471.78;1659397;86;21068;-58
2021/08/13 11:04:49;;;;;;;4.50;2.80;;;;;;;24.47;39.78;99472.59;1628176;88;21096;-58
2021/08/13 11:08:00;;;;;;;7.95;3.42;;;;;;;24.45;37.92;99470.73;1666221;84;21004;-63
2021/08/13 11:10:53;;;;;;;6.33;3.10;;;;;;;24.34;38.82;99477.27;1663923;86;21051;-63
2021/08/13 11:13:22;;;;;;;7.05;3.30;;;;;;;24.41;38.67;99483.70;1672677;84;21814;-57
2021/08/13 11:15:57;;;;;;;5.15;3.22;;;;;;;24.35;37.82;99483.75;1685490;84;21065;-59
2021/08/13 11:18:36;;;;;;;7.58;3.67;;;;;;;24.25;38.89;99473.02;1659378;86;21558;-56
2021/08/13 11:21:09;;;;;;;7.28;3.35;;;;;;;24.32;39.58;99470.03;1601990;88;21052;-59
2021/08/13 11:24:01;;;;;;;7.50;3.45;;;;;;;24.50;39.32;99459.11;1659483;86;21052;-55
2021/08/13 11:26:54;;;;;;;6.90;3.42;;;;;;;24.50;39.10;99483.36;1654308;86;21091;-60
2021/08/13 11:29:35;;;;;;;9.03;3.70;;;;;;;24.43;38.33;99472.92;1658998;86;21558;-64
2021/08/13 11:32:21;;;;;;;5.67;3.42;;;;;;;24.28;39.09;99463.59;1684473;84;21569;-59
2021/08/13 11:34:55;;;;;;;6.85;3.47;;;;;;;24.05;39.08;99469.97;1697769;84;21038;-60
2021/08/13 11:37:44;;;;;;;5.65;3.12;;;;;;;24.01;39.32;99448.72;1691515;84;21027;-60
2021/08/13 11:40:22;;;;;;;10.82;3.92;;;;;;;24.05;39.70;99469.97;1680016;84;21130;-58
2021/08/13 11:42:59;;;;;;;6.55;3.85;;;;;;;24.08;40.02;99473.42;1697683;84;21542;-59
2021/08/13 11:45:38;;;;;;;6.78;3.85;;;;;;;24.05;39.42;99461.09;1692028;84;21025;-59
2021/08/13 11:48:07;;;;;;;10.82;3.87;;;;;;;24.04;39.74;99457.59;1688444;85;20989;-59
2021/08/13 11:50:36;;;;;;;7.78;3.87;;;;;;;24.14;40.12;99467.45;1687266;85;21021;-60
2021/08/13 11:53:04;;;;;;;4.97;3.30;;;;;;;24.18;40.96;99461.78;1639195;87;21004;-59
2021/08/13 11:55:34;;;;;;;8.30;3.98;;;;;;;24.13;41.07;99456.42;1645957;86;21058;-60
2021/08/13 11:58:07;;;;;;;8.78;3.77;;;;;;;24.08;41.49;99457.27;1672603;86;21534;-63
2021/08/13 12:00:38;;;;;;;6.47;3.60;;;;;;;24.16;41.73;99456.42;1669367;85;21055;-60
2021/08/13 12:03:10;;;;;;;7.17;4.20;;;;;;;24.23;41.67;99457.70;1666884;85;21051;-60
2021/08/13 12:05:43;;;;;;;7.62;3.92;;;;;;;24.14;41.44;99466.11;1612667;87;21145;-61
2021/08/13 12:08:13;;;;;;;8.43;4.03;;;;;;;23.95;41.42;99465.20;1658476;85;21493;-59
2021/08/13 12:10:49;;;;;;;9.10;4.10;;;;;;;23.78;42.14;99459.66;1644941;86;21042;-57
2021/08/13 12:13:22;;;;;;;6.30;3.87;;;;;;;23.69;42.33;99461.35;1621693;88;21159;-58
2021/08/13 12:15:55;;;;;;;8.60;3.85;;;;;;;23.72;43.07;99472.09;1636046;88;21178;-61
2021/08/13 12:18:32;;;;;;;6.50;4.20;;;;;;;23.78;43.02;99463.69;1672214;86;21074;-61
2021/08/13 12:21:06;;;;;;;7.50;3.80;;;;;;;23.78;42.14;99453.47;1646536;86;21074;-59
2021/08/13 12:23:37;;;;;;;5.53;3.62;;;;;;;23.80;42.35;99456.70;1677705;84;21086;-62
2021/08/13 12:26:06;;;;;;;8.43;3.65;;;;;;;23.91;41.49;99442.60;1646425;86;21044;-60
2021/08/13 12:28:37;;;;;;;9.25;3.75;;;;;;;23.99;41.84;99445.52;1644589;87;21099;-58
2021/08/13 12:31:11;;;;;;;8.08;3.70;;;;;;;24.15;41.96;99454.28;1630895;88;21047;-59
2021/08/13 12:33:41;;;;;;;5.72;3.60;;;;;;;24.17;41.81;99449.41;1645018;87;21579;-58
2021/08/13 12:36:14;;;;;;;;;;;;;;;24.04;42.01;99441.98;1608087;87;21052;-60
2021/08/13 12:38:44;;;;;;;5.92;3.33;;;;;;;24.01;41.97;99446.02;1645757;87;20157;-62
2021/08/13 12:41:13;;;;;;;7.95;4.08;;;;;;;24.07;41.11;99452.97;1652822;85;21005;-59
2021/08/13 12:43:43;;;;;;;11.45;4.03;;;;;;;24.08;41.88;99448.39;1627003;88;21567;-59
2021/08/13 12:46:12;;;;;;;7.33;3.83;;;;;;;24.24;41.89;99444.48;1644999;86;21503;-58
2021/08/13 12:48:42;;;;;;;8.98;3.50;;;;;;;24.40;41.19;99441.14;1665824;86;21031;-59
2021/08/13 12:51:12;;;;;;;6.03;3.65;;;;;;;24.55;41.29;99441.00;1636579;87;21077;-58
2021/08/13 12:53:43;;;;;;;6.42;3.35;;;;;;;24.71;41.43;99452.39;1641325;85;21093;-58
2021/08/13 12:56:20;;;;;;;8.45;3.85;;;;;;;24.89;40.95;99447.63;1665888;86;21510;-59
2021/08/13 12:58:51;;;;;;;7.20;3.62;;;;;;;25.05;40.25;99445.56;1665751;85;21551;-61
